sensor_id;sensor_type;location;lat;lon;timestamp;temperature;humidity
67899;DHT22;54699;51.796;10.956;2022-12-10T00:01:23;15.70;50.40
67899;DHT22;54699;51.796;10.956;2022-12-10T00:03:52;15.60;50.30
67899;DHT22;54699;51.796;10.956;2022-12-10T00:06:20;15.60;50.30
67899;DHT22;54699;51.796;10.956;2022-12-10T00:08:48;15.60;50.40
67899;DHT22;54699;51.796;10.956;2022-12-10T00:11:16;15.60;50.30
67899;DHT22;54699;51.796;10.956;2022-12-10T00:13:46;15.60;50.30
67899;DHT22;54699;51.796;10.956;2022-12-10T00:16:15;15.60;50.30
67899;DHT22;54699;51.796;10.956;2022-12-10T00:18:44;15.60;50.30
67899;DHT22;54699;51.796;10.956;2022-12-10T00:21:12;15.60;50.30
67899;DHT22;54699;51.796;10.956;2022-12-10T00:23:41;15.60;50.30
67899;DHT22;54699;51.796;10.956;2022-12-10T00:26:09;15.60;50.30
67899;DHT22;54699;51.796;10.956;2022-12-10T00:28:38;15.60;50.20
67899;DHT22;54699;51.796;10.956;2022-12-10T00:31:05;15.60;50.20
67899;DHT22;54699;51.796;10.956;2022-12-10T00:33:34;15.60;50.30
67899;DHT22;54699;51.796;10.956;2022-12-10T00:36:03;15.60;50.30
67899;DHT22;54699;51.796;10.956;2022-12-10T00:38:31;15.60;50.20
67899;DHT22;54699;51.796;10.956;2022-12-10T00:40:58;15.60;50.30
67899;DHT22;54699;51.796;10.956;2022-12-10T00:43:26;15.60;50.20
67899;DHT22;54699;51.796;10.956;2022-12-10T00:45:53;15.60;50.20
67899;DHT22;54699;51.796;10.956;2022-12-10T00:48:20;15.60;50.20
67899;DHT22;54699;51.796;10.956;2022-12-10T00:50:54;15.60;50.20
67899;DHT22;54699;51.796;10.956;2022-12-10T00:53:24;15.60;50.10
67899;DHT22;54699;51.796;10.956;2022-12-10T00:55:51;15.60;50.20
67899;DHT22;54699;51.796;10.956;2022-12-10T00:58:18;15.60;50.20
67899;DHT22;54699;51.796;10.956;2022-12-10T01:00:46;15.60;50.10
67899;DHT22;54699;51.796;10.956;2022-12-10T01:03:13;15.60;50.20
67899;DHT22;54699;51.796;10.956;2022-12-10T01:05:40;15.60;50.20
67899;DHT22;54699;51.796;10.956;2022-12-10T01:08:07;15.60;50.10
67899;DHT22;54699;51.796;10.956;2022-12-10T01:10:35;15.60;50.20
67899;DHT22;54699;51.796;10.956;2022-12-10T01:13:03;15.60;50.10
67899;DHT22;54699;51.796;10.956;2022-12-10T01:15:30;15.60;50.20
67899;DHT22;54699;51.796;10.956;2022-12-10T01:17:57;15.60;50.10
67899;DHT22;54699;51.796;10.956;2022-12-10T01:20:24;15.60;50.10
67899;DHT22;54699;51.796;10.956;2022-12-10T01:22:51;15.60;50.10
67899;DHT22;54699;51.796;10.956;2022-12-10T01:25:20;15.60;50.10
67899;DHT22;54699;51.796;10.956;2022-12-10T01:27:48;15.60;50.10
67899;DHT22;54699;51.796;10.956;2022-12-10T01:30:15;15.60;50.10
67899;DHT22;54699;51.796;10.956;2022-12-10T01:32:42;15.60;50.20
67899;DHT22;54699;51.796;10.956;2022-12-10T01:35:09;15.50;50.10
67899;DHT22;54699;51.796;10.956;2022-12-10T01:37:36;15.50;50.00
67899;DHT22;54699;51.796;10.956;2022-12-10T01:40:03;15.50;50.10
67899;DHT22;54699;51.796;10.956;2022-12-10T01:42:30;15.50;50.00
67899;DHT22;54699;51.796;10.956;2022-12-10T01:47:40;15.50;50.00
67899;DHT22;54699;51.796;10.956;2022-12-10T01:50:07;15.50;50.10
67899;DHT22;54699;51.796;10.956;2022-12-10T01:52:35;15.50;50.00
67899;DHT22;54699;51.796;10.956;2022-12-10T01:55:05;15.50;50.00
67899;DHT22;54699;51.796;10.956;2022-12-10T01:57:35;15.50;50.00
67899;DHT22;54699;51.796;10.956;2022-12-10T02:00:03;15.50;50.00
67899;DHT22;54699;51.796;10.956;2022-12-10T02:02:38;15.50;50.10
67899;DHT22;54699;51.796;10.956;2022-12-10T02:05:16;15.50;50.10
67899;DHT22;54699;51.796;10.956;2022-12-10T02:07:53;15.50;50.00
67899;DHT22;54699;51.796;10.956;2022-12-10T02:10:29;15.50;50.00
67899;DHT22;54699;51.796;10.956;2022-12-10T02:13:06;15.50;50.00
67899;DHT22;54699;51.796;10.956;2022-12-10T02:15:39;15.50;50.00
67899;DHT22;54699;51.796;10.956;2022-12-10T02:18:12;15.50;50.00
67899;DHT22;54699;51.796;10.956;2022-12-10T02:20:45;15.50;50.00
67899;DHT22;54699;51.796;10.956;2022-12-10T02:23:16;15.50;50.00
67899;DHT22;54699;51.796;10.956;2022-12-10T02:25:49;15.50;50.00
67899;DHT22;54699;51.796;10.956;2022-12-10T02:28:22;15.50;49.90
67899;DHT22;54699;51.796;10.956;2022-12-10T02:30:58;15.50;49.90
67899;DHT22;54699;51.796;10.956;2022-12-10T02:33:26;15.50;49.90
67899;DHT22;54699;51.796;10.956;2022-12-10T02:35:56;15.50;50.00
67899;DHT22;54699;51.796;10.956;2022-12-10T02:38:26;15.50;49.80
67899;DHT22;54699;51.796;10.956;2022-12-10T02:40:57;15.50;49.90
67899;DHT22;54699;51.796;10.956;2022-12-10T02:43:27;15.50;49.90
67899;DHT22;54699;51.796;10.956;2022-12-10T02:45:56;15.50;49.90
67899;DHT22;54699;51.796;10.956;2022-12-10T02:48:25;15.50;49.90
67899;DHT22;54699;51.796;10.956;2022-12-10T02:50:53;15.50;49.90
67899;DHT22;54699;51.796;10.956;2022-12-10T02:53:22;15.50;49.80
67899;DHT22;54699;51.796;10.956;2022-12-10T02:55:53;15.50;49.90
67899;DHT22;54699;51.796;10.956;2022-12-10T02:58:31;15.50;49.80
67899;DHT22;54699;51.796;10.956;2022-12-10T03:01:10;15.50;49.90
67899;DHT22;54699;51.796;10.956;2022-12-10T03:03:43;15.50;49.90
67899;DHT22;54699;51.796;10.956;2022-12-10T03:06:16;15.50;49.90
67899;DHT22;54699;51.796;10.956;2022-12-10T03:08:49;15.50;49.80
67899;DHT22;54699;51.796;10.956;2022-12-10T03:11:19;15.50;49.90
67899;DHT22;54699;51.796;10.956;2022-12-10T03:14:04;15.50;49.80
67899;DHT22;54699;51.796;10.956;2022-12-10T03:16:39;15.50;49.80
67899;DHT22;54699;51.796;10.956;2022-12-10T03:19:11;15.50;49.80
67899;DHT22;54699;51.796;10.956;2022-12-10T03:21:41;15.50;49.80
67899;DHT22;54699;51.796;10.956;2022-12-10T03:24:11;15.50;49.80
67899;DHT22;54699;51.796;10.956;2022-12-10T03:26:38;15.50;49.80
67899;DHT22;54699;51.796;10.956;2022-12-10T03:29:08;15.50;49.70
67899;DHT22;54699;51.796;10.956;2022-12-10T03:31:39;15.50;50.70
67899;DHT22;54699;51.796;10.956;2022-12-10T03:34:08;15.50;49.80
67899;DHT22;54699;51.796;10.956;2022-12-10T03:36:37;15.40;49.80
67899;DHT22;54699;51.796;10.956;2022-12-10T03:39:05;15.50;49.80
67899;DHT22;54699;51.796;10.956;2022-12-10T03:41:33;15.50;49.70
67899;DHT22;54699;51.796;10.956;2022-12-10T03:44:00;15.50;49.70
67899;DHT22;54699;51.796;10.956;2022-12-10T03:46:28;15.50;49.70
67899;DHT22;54699;51.796;10.956;2022-12-10T03:48:56;15.40;49.60
67899;DHT22;54699;51.796;10.956;2022-12-10T03:51:26;15.40;49.70
67899;DHT22;54699;51.796;10.956;2022-12-10T03:53:53;15.40;49.70
67899;DHT22;54699;51.796;10.956;2022-12-10T03:56:20;15.40;49.60
67899;DHT22;54699;51.796;10.956;2022-12-10T03:58:47;15.40;49.70
67899;DHT22;54699;51.796;10.956;2022-12-10T04:01:15;15.40;49.60
67899;DHT22;54699;51.796;10.956;2022-12-10T04:03:43;15.40;49.70
67899;DHT22;54699;51.796;10.956;2022-12-10T04:06:12;15.40;49.60
67899;DHT22;54699;51.796;10.956;2022-12-10T04:08:42;15.40;49.60
67899;DHT22;54699;51.796;10.956;2022-12-10T04:11:12;15.40;49.60
67899;DHT22;54699;51.796;10.956;2022-12-10T04:13:40;15.40;49.50
67899;DHT22;54699;51.796;10.956;2022-12-10T04:16:25;15.40;49.60
67899;DHT22;54699;51.796;10.956;2022-12-10T04:18:53;15.40;49.50
67899;DHT22;54699;51.796;10.956;2022-12-10T04:21:20;15.40;49.60
67899;DHT22;54699;51.796;10.956;2022-12-10T04:24:08;15.40;49.60
67899;DHT22;54699;51.796;10.956;2022-12-10T04:26:53;15.40;49.50
67899;DHT22;54699;51.796;10.956;2022-12-10T04:29:21;15.40;49.50
67899;DHT22;54699;51.796;10.956;2022-12-10T04:31:49;15.40;49.50
67899;DHT22;54699;51.796;10.956;2022-12-10T04:34:17;15.40;49.40
67899;DHT22;54699;51.796;10.956;2022-12-10T04:36:44;15.40;49.50
67899;DHT22;54699;51.796;10.956;2022-12-10T04:39:12;15.40;49.50
67899;DHT22;54699;51.796;10.956;2022-12-10T04:41:40;15.40;49.40
67899;DHT22;54699;51.796;10.956;2022-12-10T04:44:08;15.40;49.40
67899;DHT22;54699;51.796;10.956;2022-12-10T04:46:35;15.40;49.40
67899;DHT22;54699;51.796;10.956;2022-12-10T04:49:02;15.40;49.50
67899;DHT22;54699;51.796;10.956;2022-12-10T04:51:30;15.40;49.50
67899;DHT22;54699;51.796;10.956;2022-12-10T04:54:00;15.40;49.40
67899;DHT22;54699;51.796;10.956;2022-12-10T04:56:28;15.40;49.40
67899;DHT22;54699;51.796;10.956;2022-12-10T04:58:55;15.40;49.30
67899;DHT22;54699;51.796;10.956;2022-12-10T05:01:23;15.40;49.40
67899;DHT22;54699;51.796;10.956;2022-12-10T05:03:50;15.40;49.40
67899;DHT22;54699;51.796;10.956;2022-12-10T05:06:18;15.40;49.30
67899;DHT22;54699;51.796;10.956;2022-12-10T05:08:45;15.40;49.40
67899;DHT22;54699;51.796;10.956;2022-12-10T05:11:13;15.40;49.30
67899;DHT22;54699;51.796;10.956;2022-12-10T05:13:43;15.40;49.40
67899;DHT22;54699;51.796;10.956;2022-12-10T05:16:11;15.40;49.20
67899;DHT22;54699;51.796;10.956;2022-12-10T05:18:40;15.40;49.20
67899;DHT22;54699;51.796;10.956;2022-12-10T05:21:07;15.40;49.20
67899;DHT22;54699;51.796;10.956;2022-12-10T05:23:38;15.40;49.20
67899;DHT22;54699;51.796;10.956;2022-12-10T05:26:05;15.40;49.40
67899;DHT22;54699;51.796;10.956;2022-12-10T05:28:35;15.40;49.20
67899;DHT22;54699;51.796;10.956;2022-12-10T05:31:05;15.40;49.20
67899;DHT22;54699;51.796;10.956;2022-12-10T05:33:38;15.40;49.30
67899;DHT22;54699;51.796;10.956;2022-12-10T05:36:05;15.40;49.30
67899;DHT22;54699;51.796;10.956;2022-12-10T05:38:33;15.40;49.20
67899;DHT22;54699;51.796;10.956;2022-12-10T05:41:00;15.40;49.20
67899;DHT22;54699;51.796;10.956;2022-12-10T05:43:28;15.40;49.20
67899;DHT22;54699;51.796;10.956;2022-12-10T05:45:58;15.40;49.20
67899;DHT22;54699;51.796;10.956;2022-12-10T05:48:27;15.40;49.20
67899;DHT22;54699;51.796;10.956;2022-12-10T05:50:54;15.40;49.20
67899;DHT22;54699;51.796;10.956;2022-12-10T05:53:22;15.40;49.10
67899;DHT22;54699;51.796;10.956;2022-12-10T05:55:50;15.40;49.10
67899;DHT22;54699;51.796;10.956;2022-12-10T05:58:26;15.40;49.10
67899;DHT22;54699;51.796;10.956;2022-12-10T06:00:53;15.40;49.10
67899;DHT22;54699;51.796;10.956;2022-12-10T06:03:20;15.40;49.20
67899;DHT22;54699;51.796;10.956;2022-12-10T06:05:48;15.40;49.10
67899;DHT22;54699;51.796;10.956;2022-12-10T06:08:15;15.40;49.00
67899;DHT22;54699;51.796;10.956;2022-12-10T06:10:42;15.40;49.10
67899;DHT22;54699;51.796;10.956;2022-12-10T06:13:12;15.40;49.10
67899;DHT22;54699;51.796;10.956;2022-12-10T06:15:40;15.40;49.10
67899;DHT22;54699;51.796;10.956;2022-12-10T06:18:08;15.40;49.10
67899;DHT22;54699;51.796;10.956;2022-12-10T06:20:37;15.40;49.00
67899;DHT22;54699;51.796;10.956;2022-12-10T06:23:05;15.40;49.00
67899;DHT22;54699;51.796;10.956;2022-12-10T06:25:33;15.40;49.10
67899;DHT22;54699;51.796;10.956;2022-12-10T06:28:01;15.40;49.00
67899;DHT22;54699;51.796;10.956;2022-12-10T06:30:28;15.40;49.00
67899;DHT22;54699;51.796;10.956;2022-12-10T06:32:54;15.40;49.10
67899;DHT22;54699;51.796;10.956;2022-12-10T06:35:22;15.40;49.00
67899;DHT22;54699;51.796;10.956;2022-12-10T06:37:50;15.40;49.00
67899;DHT22;54699;51.796;10.956;2022-12-10T06:40:18;15.40;49.00
67899;DHT22;54699;51.796;10.956;2022-12-10T06:42:50;15.40;49.00
67899;DHT22;54699;51.796;10.956;2022-12-10T06:45:17;15.40;49.00
67899;DHT22;54699;51.796;10.956;2022-12-10T06:47:44;15.40;48.90
67899;DHT22;54699;51.796;10.956;2022-12-10T06:50:11;15.40;48.90
67899;DHT22;54699;51.796;10.956;2022-12-10T06:52:37;15.40;49.00
67899;DHT22;54699;51.796;10.956;2022-12-10T06:55:06;15.30;48.90
67899;DHT22;54699;51.796;10.956;2022-12-10T06:57:34;15.40;49.90
67899;DHT22;54699;51.796;10.956;2022-12-10T07:00:01;15.40;48.90
67899;DHT22;54699;51.796;10.956;2022-12-10T07:02:29;15.30;48.80
67899;DHT22;54699;51.796;10.956;2022-12-10T07:04:56;15.40;48.90
67899;DHT22;54699;51.796;10.956;2022-12-10T07:07:23;15.40;48.90
67899;DHT22;54699;51.796;10.956;2022-12-10T07:09:49;15.30;48.80
67899;DHT22;54699;51.796;10.956;2022-12-10T07:12:19;15.40;48.90
67899;DHT22;54699;51.796;10.956;2022-12-10T07:14:47;15.40;48.90
67899;DHT22;54699;51.796;10.956;2022-12-10T07:17:14;15.40;48.90
67899;DHT22;54699;51.796;10.956;2022-12-10T07:19:41;15.40;48.90
67899;DHT22;54699;51.796;10.956;2022-12-10T07:22:08;15.30;48.80
67899;DHT22;54699;51.796;10.956;2022-12-10T07:24:34;15.30;48.80
67899;DHT22;54699;51.796;10.956;2022-12-10T07:27:04;15.40;48.80
67899;DHT22;54699;51.796;10.956;2022-12-10T07:29:31;15.30;48.80
67899;DHT22;54699;51.796;10.956;2022-12-10T07:31:59;15.40;48.80
67899;DHT22;54699;51.796;10.956;2022-12-10T07:34:26;15.40;48.80
67899;DHT22;54699;51.796;10.956;2022-12-10T07:36:53;15.30;48.80
67899;DHT22;54699;51.796;10.956;2022-12-10T07:39:20;15.30;48.80
67899;DHT22;54699;51.796;10.956;2022-12-10T07:41:47;15.40;48.70
67899;DHT22;54699;51.796;10.956;2022-12-10T07:44:15;15.40;48.80
67899;DHT22;54699;51.796;10.956;2022-12-10T07:46:43;15.40;48.70
67899;DHT22;54699;51.796;10.956;2022-12-10T07:49:12;15.40;48.80
67899;DHT22;54699;51.796;10.956;2022-12-10T07:51:39;15.30;48.70
67899;DHT22;54699;51.796;10.956;2022-12-10T07:54:05;15.30;48.70
67899;DHT22;54699;51.796;10.956;2022-12-10T07:56:32;15.30;48.70
67899;DHT22;54699;51.796;10.956;2022-12-10T07:58:59;15.40;48.70
67899;DHT22;54699;51.796;10.956;2022-12-10T08:01:26;15.30;48.70
67899;DHT22;54699;51.796;10.956;2022-12-10T08:03:54;15.40;48.70
67899;DHT22;54699;51.796;10.956;2022-12-10T08:06:24;15.30;48.60
67899;DHT22;54699;51.796;10.956;2022-12-10T08:08:53;15.30;48.60
67899;DHT22;54699;51.796;10.956;2022-12-10T08:11:21;15.40;48.70
67899;DHT22;54699;51.796;10.956;2022-12-10T08:13:49;15.30;48.70
67899;DHT22;54699;51.796;10.956;2022-12-10T08:16:17;15.30;48.70
67899;DHT22;54699;51.796;10.956;2022-12-10T08:18:45;15.30;48.60
67899;DHT22;54699;51.796;10.956;2022-12-10T08:21:13;15.30;48.70
67899;DHT22;54699;51.796;10.956;2022-12-10T08:23:43;15.30;48.70
67899;DHT22;54699;51.796;10.956;2022-12-10T08:26:11;15.30;48.60
67899;DHT22;54699;51.796;10.956;2022-12-10T08:28:40;15.40;48.60
67899;DHT22;54699;51.796;10.956;2022-12-10T08:31:07;15.30;48.60
67899;DHT22;54699;51.796;10.956;2022-12-10T08:33:37;15.40;48.70
67899;DHT22;54699;51.796;10.956;2022-12-10T08:36:06;15.30;48.60
67899;DHT22;54699;51.796;10.956;2022-12-10T08:38:34;15.40;48.60
67899;DHT22;54699;51.796;10.956;2022-12-10T08:41:06;15.30;48.60
67899;DHT22;54699;51.796;10.956;2022-12-10T08:43:34;15.30;48.50
67899;DHT22;54699;51.796;10.956;2022-12-10T08:46:01;15.40;48.70
67899;DHT22;54699;51.796;10.956;2022-12-10T08:48:29;15.30;48.60
67899;DHT22;54699;51.796;10.956;2022-12-10T08:50:56;15.30;48.70
67899;DHT22;54699;51.796;10.956;2022-12-10T08:53:23;15.30;48.60
67899;DHT22;54699;51.796;10.956;2022-12-10T08:55:50;15.40;48.60
67899;DHT22;54699;51.796;10.956;2022-12-10T08:58:19;15.30;48.50
67899;DHT22;54699;51.796;10.956;2022-12-10T09:00:46;15.30;48.50
67899;DHT22;54699;51.796;10.956;2022-12-10T09:03:13;15.40;48.60
67899;DHT22;54699;51.796;10.956;2022-12-10T09:05:40;15.30;48.60
67899;DHT22;54699;51.796;10.956;2022-12-10T09:08:07;15.40;48.60
67899;DHT22;54699;51.796;10.956;2022-12-10T09:10:35;15.40;48.60
67899;DHT22;54699;51.796;10.956;2022-12-10T09:13:02;15.30;48.50
67899;DHT22;54699;51.796;10.956;2022-12-10T09:15:31;15.30;48.50
67899;DHT22;54699;51.796;10.956;2022-12-10T09:17:58;15.30;48.60
67899;DHT22;54699;51.796;10.956;2022-12-10T09:20:25;15.40;48.60
67899;DHT22;54699;51.796;10.956;2022-12-10T09:22:52;15.40;48.50
67899;DHT22;54699;51.796;10.956;2022-12-10T09:25:19;15.40;48.60
67899;DHT22;54699;51.796;10.956;2022-12-10T09:27:46;15.40;48.60
67899;DHT22;54699;51.796;10.956;2022-12-10T09:30:16;15.40;48.60
67899;DHT22;54699;51.796;10.956;2022-12-10T09:32:44;15.40;48.50
67899;DHT22;54699;51.796;10.956;2022-12-10T09:35:13;15.40;48.50
67899;DHT22;54699;51.796;10.956;2022-12-10T09:37:40;15.40;48.50
67899;DHT22;54699;51.796;10.956;2022-12-10T09:40:09;15.40;48.60
67899;DHT22;54699;51.796;10.956;2022-12-10T09:42:42;15.40;48.50
67899;DHT22;54699;51.796;10.956;2022-12-10T09:45:18;15.40;48.60
67899;DHT22;54699;51.796;10.956;2022-12-10T09:47:54;15.40;48.50
67899;DHT22;54699;51.796;10.956;2022-12-10T09:50:26;15.40;48.60
67899;DHT22;54699;51.796;10.956;2022-12-10T09:52:57;15.40;48.50
67899;DHT22;54699;51.796;10.956;2022-12-10T09:55:31;15.40;48.50
67899;DHT22;54699;51.796;10.956;2022-12-10T09:58:04;15.40;48.60
67899;DHT22;54699;51.796;10.956;2022-12-10T10:00:37;15.40;48.60
67899;DHT22;54699;51.796;10.956;2022-12-10T10:03:09;15.40;48.50
67899;DHT22;54699;51.796;10.956;2022-12-10T10:05:40;15.40;48.50
67899;DHT22;54699;51.796;10.956;2022-12-10T10:08:11;15.40;48.60
67899;DHT22;54699;51.796;10.956;2022-12-10T10:10:41;15.40;48.60
67899;DHT22;54699;51.796;10.956;2022-12-10T10:13:12;15.40;48.50
67899;DHT22;54699;51.796;10.956;2022-12-10T10:15:45;15.40;48.50
67899;DHT22;54699;51.796;10.956;2022-12-10T10:18:14;15.40;48.60
67899;DHT22;54699;51.796;10.956;2022-12-10T10:20:50;15.40;48.50
67899;DHT22;54699;51.796;10.956;2022-12-10T10:23:17;15.40;48.60
67899;DHT22;54699;51.796;10.956;2022-12-10T10:25:44;15.40;48.50
67899;DHT22;54699;51.796;10.956;2022-12-10T10:28:12;15.40;48.50
67899;DHT22;54699;51.796;10.956;2022-12-10T10:30:43;15.40;48.60
67899;DHT22;54699;51.796;10.956;2022-12-10T10:33:12;15.40;48.50
67899;DHT22;54699;51.796;10.956;2022-12-10T10:35:43;15.40;48.50
67899;DHT22;54699;51.796;10.956;2022-12-10T10:38:15;15.40;48.60
67899;DHT22;54699;51.796;10.956;2022-12-10T10:40:46;15.40;48.60
67899;DHT22;54699;51.796;10.956;2022-12-10T10:43:18;15.40;48.60
67899;DHT22;54699;51.796;10.956;2022-12-10T10:45:49;15.40;48.60
67899;DHT22;54699;51.796;10.956;2022-12-10T10:48:19;15.40;48.50
67899;DHT22;54699;51.796;10.956;2022-12-10T10:50:49;15.40;48.50
67899;DHT22;54699;51.796;10.956;2022-12-10T10:53:21;15.40;48.50
67899;DHT22;54699;51.796;10.956;2022-12-10T10:55:53;15.40;48.60
67899;DHT22;54699;51.796;10.956;2022-12-10T10:58:23;15.40;48.50
67899;DHT22;54699;51.796;10.956;2022-12-10T11:00:54;15.40;48.50
67899;DHT22;54699;51.796;10.956;2022-12-10T11:03:26;15.40;48.50
67899;DHT22;54699;51.796;10.956;2022-12-10T11:05:57;15.40;48.60
67899;DHT22;54699;51.796;10.956;2022-12-10T11:08:26;15.40;48.50
67899;DHT22;54699;51.796;10.956;2022-12-10T11:10:56;15.40;48.60
67899;DHT22;54699;51.796;10.956;2022-12-10T11:13:29;15.40;48.60
67899;DHT22;54699;51.796;10.956;2022-12-10T11:16:01;15.40;48.50
67899;DHT22;54699;51.796;10.956;2022-12-10T11:18:38;15.40;48.60
67899;DHT22;54699;51.796;10.956;2022-12-10T11:21:15;15.40;48.60
67899;DHT22;54699;51.796;10.956;2022-12-10T11:23:45;15.40;48.50
67899;DHT22;54699;51.796;10.956;2022-12-10T11:29:25;15.40;48.60
67899;DHT22;54699;51.796;10.956;2022-12-10T11:32:16;15.40;48.60
67899;DHT22;54699;51.796;10.956;2022-12-10T11:35:00;15.40;48.50
67899;DHT22;54699;51.796;10.956;2022-12-10T11:37:38;15.40;48.60
67899;DHT22;54699;51.796;10.956;2022-12-10T11:40:20;15.40;48.60
67899;DHT22;54699;51.796;10.956;2022-12-10T11:43:00;15.40;48.60
67899;DHT22;54699;51.796;10.956;2022-12-10T11:45:43;15.40;48.50
67899;DHT22;54699;51.796;10.956;2022-12-10T11:48:22;15.40;48.50
67899;DHT22;54699;51.796;10.956;2022-12-10T11:51:00;15.40;48.70
67899;DHT22;54699;51.796;10.956;2022-12-10T11:53:38;15.40;48.60
67899;DHT22;54699;51.796;10.956;2022-12-10T11:56:17;15.40;48.50
67899;DHT22;54699;51.796;10.956;2022-12-10T11:58:56;15.40;48.60
67899;DHT22;54699;51.796;10.956;2022-12-10T12:01:32;15.40;48.60
67899;DHT22;54699;51.796;10.956;2022-12-10T12:07:08;15.40;48.60
67899;DHT22;54699;51.796;10.956;2022-12-10T12:10:01;15.40;48.60
67899;DHT22;54699;51.796;10.956;2022-12-10T12:13:00;15.40;48.60
67899;DHT22;54699;51.796;10.956;2022-12-10T12:15:31;15.40;48.50
67899;DHT22;54699;51.796;10.956;2022-12-10T12:18:03;15.40;48.50
67899;DHT22;54699;51.796;10.956;2022-12-10T12:20:33;15.40;48.50
67899;DHT22;54699;51.796;10.956;2022-12-10T12:23:13;15.40;48.60
67899;DHT22;54699;51.796;10.956;2022-12-10T12:25:45;15.40;48.50
67899;DHT22;54699;51.796;10.956;2022-12-10T12:28:15;15.40;48.60
67899;DHT22;54699;51.796;10.956;2022-12-10T12:30:49;15.40;48.50
67899;DHT22;54699;51.796;10.956;2022-12-10T12:33:26;15.40;48.50
67899;DHT22;54699;51.796;10.956;2022-12-10T12:35:57;15.40;48.60
67899;DHT22;54699;51.796;10.956;2022-12-10T12:38:30;15.40;48.50
67899;DHT22;54699;51.796;10.956;2022-12-10T12:41:01;15.40;48.60
67899;DHT22;54699;51.796;10.956;2022-12-10T12:43:33;15.40;48.50
67899;DHT22;54699;51.796;10.956;2022-12-10T12:46:10;15.40;49.40
67899;DHT22;54699;51.796;10.956;2022-12-10T12:48:44;15.40;48.60
67899;DHT22;54699;51.796;10.956;2022-12-10T12:51:16;15.40;49.50
67899;DHT22;54699;51.796;10.956;2022-12-10T12:53:47;15.40;48.50
67899;DHT22;54699;51.796;10.956;2022-12-10T12:56:19;15.40;48.50
67899;DHT22;54699;51.796;10.956;2022-12-10T12:58:55;15.40;48.60
67899;DHT22;54699;51.796;10.956;2022-12-10T13:01:30;15.40;48.50
67899;DHT22;54699;51.796;10.956;2022-12-10T13:04:02;15.40;48.50
67899;DHT22;54699;51.796;10.956;2022-12-10T13:06:31;15.40;48.50
67899;DHT22;54699;51.796;10.956;2022-12-10T13:15:13;15.40;48.60
67899;DHT22;54699;51.796;10.956;2022-12-10T13:20:29;15.40;48.50
67899;DHT22;54699;51.796;10.956;2022-12-10T13:22:58;15.40;48.50
67899;DHT22;54699;51.796;10.956;2022-12-10T13:25:40;15.40;48.50
67899;DHT22;54699;51.796;10.956;2022-12-10T13:28:27;15.40;48.60
67899;DHT22;54699;51.796;10.956;2022-12-10T13:31:07;15.40;48.50
67899;DHT22;54699;51.796;10.956;2022-12-10T13:33:46;15.40;48.60
67899;DHT22;54699;51.796;10.956;2022-12-10T13:36:19;15.40;48.50
67899;DHT22;54699;51.796;10.956;2022-12-10T13:38:54;15.40;48.50
67899;DHT22;54699;51.796;10.956;2022-12-10T13:41:23;15.40;48.50
67899;DHT22;54699;51.796;10.956;2022-12-10T13:47:03;15.40;48.50
67899;DHT22;54699;51.796;10.956;2022-12-10T13:49:34;15.40;48.60
67899;DHT22;54699;51.796;10.956;2022-12-10T13:52:14;15.40;48.50
67899;DHT22;54699;51.796;10.956;2022-12-10T13:57:50;15.40;48.50
67899;DHT22;54699;51.796;10.956;2022-12-10T14:00:31;15.40;48.50
67899;DHT22;54699;51.796;10.956;2022-12-10T14:06:08;15.40;48.40
67899;DHT22;54699;51.796;10.956;2022-12-10T14:08:44;15.40;48.50
67899;DHT22;54699;51.796;10.956;2022-12-10T14:11:20;15.40;48.50
67899;DHT22;54699;51.796;10.956;2022-12-10T14:13:52;15.40;48.50
67899;DHT22;54699;51.796;10.956;2022-12-10T14:16:24;15.40;48.50
67899;DHT22;54699;51.796;10.956;2022-12-10T14:18:55;15.40;48.50
67899;DHT22;54699;51.796;10.956;2022-12-10T14:21:27;15.40;48.40
67899;DHT22;54699;51.796;10.956;2022-12-10T14:23:59;15.40;48.60
67899;DHT22;54699;51.796;10.956;2022-12-10T14:26:26;15.30;48.40
67899;DHT22;54699;51.796;10.956;2022-12-10T14:28:55;15.40;48.50
67899;DHT22;54699;51.796;10.956;2022-12-10T14:31:27;15.30;48.30
67899;DHT22;54699;51.796;10.956;2022-12-10T14:33:57;15.30;48.30
67899;DHT22;54699;51.796;10.956;2022-12-10T14:36:28;15.40;48.30
67899;DHT22;54699;51.796;10.956;2022-12-10T14:38:58;15.40;48.30
67899;DHT22;54699;51.796;10.956;2022-12-10T14:41:26;15.40;48.30
67899;DHT22;54699;51.796;10.956;2022-12-10T14:43:56;15.40;48.30
67899;DHT22;54699;51.796;10.956;2022-12-10T14:46:30;15.40;48.40
67899;DHT22;54699;51.796;10.956;2022-12-10T14:48:57;15.30;48.30
67899;DHT22;54699;51.796;10.956;2022-12-10T14:51:30;15.40;48.30
67899;DHT22;54699;51.796;10.956;2022-12-10T14:53:59;15.30;48.40
67899;DHT22;54699;51.796;10.956;2022-12-10T14:56:28;15.30;48.30
67899;DHT22;54699;51.796;10.956;2022-12-10T14:59:01;15.30;48.30
67899;DHT22;54699;51.796;10.956;2022-12-10T15:01:36;15.30;48.30
67899;DHT22;54699;51.796;10.956;2022-12-10T15:04:06;15.30;48.40
67899;DHT22;54699;51.796;10.956;2022-12-10T15:06:42;15.30;48.30
67899;DHT22;54699;51.796;10.956;2022-12-10T15:09:12;15.30;48.30
67899;DHT22;54699;51.796;10.956;2022-12-10T15:11:42;15.30;48.30
67899;DHT22;54699;51.796;10.956;2022-12-10T15:14:10;15.30;48.30
67899;DHT22;54699;51.796;10.956;2022-12-10T15:16:46;15.30;48.30
67899;DHT22;54699;51.796;10.956;2022-12-10T15:19:18;15.30;48.30
67899;DHT22;54699;51.796;10.956;2022-12-10T15:21:47;15.30;48.40
67899;DHT22;54699;51.796;10.956;2022-12-10T15:24:18;15.30;48.30
67899;DHT22;54699;51.796;10.956;2022-12-10T15:26:47;15.30;48.40
67899;DHT22;54699;51.796;10.956;2022-12-10T15:29:28;15.30;48.40
67899;DHT22;54699;51.796;10.956;2022-12-10T15:32:08;15.30;48.40
67899;DHT22;54699;51.796;10.956;2022-12-10T15:34:41;15.30;48.30
67899;DHT22;54699;51.796;10.956;2022-12-10T15:37:17;15.30;48.40
67899;DHT22;54699;51.796;10.956;2022-12-10T15:39:47;15.30;48.40
67899;DHT22;54699;51.796;10.956;2022-12-10T15:42:27;15.30;48.30
67899;DHT22;54699;51.796;10.956;2022-12-10T15:44:58;15.30;48.30
67899;DHT22;54699;51.796;10.956;2022-12-10T15:47:31;15.30;48.40
67899;DHT22;54699;51.796;10.956;2022-12-10T15:49:58;15.30;48.30
67899;DHT22;54699;51.796;10.956;2022-12-10T15:52:26;15.30;48.30
67899;DHT22;54699;51.796;10.956;2022-12-10T15:54:55;15.30;48.40
67899;DHT22;54699;51.796;10.956;2022-12-10T15:57:23;15.30;48.70
67899;DHT22;54699;51.796;10.956;2022-12-10T15:59:52;15.30;48.30
67899;DHT22;54699;51.796;10.956;2022-12-10T16:02:25;15.30;48.40